Time;durP1;ratioP1;P1;durP2;ratioP2;P2;SDS_P1;SDS_P2;PMS_P1;PMS_P2;Temp;Humidity;BMP_temperature;BMP_pressure;BME280_temperature;BME280_humidity;BME280_pressure;Samples;Min_cycle;Max_cycle;Signal;HPM_P1;HPM_P2
2023/10/29 00:01:33;;;;;;;0.50;0.50;;;10.40;99.90;;;;;;4968708;28;20210;-56
2023/10/29 00:04:00;;;;;;;0.40;0.40;;;10.30;99.90;;;;;;4967972;28;20231;-55
2023/10/29 00:06:27;;;;;;;0.67;0.60;;;10.30;99.90;;;;;;4971422;28;20671;-55
2023/10/29 00:08:54;;;;;;;0.50;0.50;;;10.30;99.90;;;;;;4972441;28;20208;-55
2023/10/29 00:11:21;;;;;;;1.60;0.70;;;10.30;99.90;;;;;;4971452;28;20638;-55
2023/10/29 00:13:51;;;;;;;1.20;0.70;;;10.30;99.90;;;;;;4970117;28;20215;-55
2023/10/29 00:16:18;;;;;;;0.50;0.50;;;10.30;99.90;;;;;;4970577;28;20277;-56
2023/10/29 00:18:46;;;;;;;0.60;0.50;;;10.20;99.90;;;;;;4971127;28;20300;-56
2023/10/29 00:21:14;;;;;;;0.60;0.60;;;10.20;99.90;;;;;;4968369;28;20231;-55
2023/10/29 00:23:41;;;;;;;0.60;0.60;;;10.30;99.90;;;;;;4967844;28;20735;-55
2023/10/29 00:26:08;;;;;;;1.70;0.63;;;10.30;99.90;;;;;;4972188;28;20203;-55
2023/10/29 00:28:36;;;;;;;0.73;0.47;;;10.30;99.90;;;;;;4971161;28;20207;-55
2023/10/29 00:31:07;;;;;;;0.40;0.40;;;10.30;99.90;;;;;;4971825;28;20277;-56
2023/10/29 00:33:35;;;;;;;7.10;1.20;;;10.30;99.90;;;;;;4970724;28;20976;-55
2023/10/29 00:36:07;;;;;;;0.33;0.33;;;10.30;99.90;;;;;;4970476;28;20204;-55
2023/10/29 00:38:34;;;;;;;0.60;0.40;;;10.30;99.90;;;;;;4971140;28;20217;-55
2023/10/29 00:41:05;;;;;;;0.37;0.37;;;10.30;99.90;;;;;;4970630;28;20257;-56
2023/10/29 00:46:07;;;;;;;0.30;0.30;;;10.30;99.90;;;;;;4970986;28;20571;-55
2023/10/29 00:48:34;;;;;;;0.50;0.50;;;10.30;99.90;;;;;;4969625;28;20705;-55
2023/10/29 00:51:08;;;;;;;0.40;0.30;;;10.30;99.90;;;;;;4969056;28;20211;-55
2023/10/29 00:53:37;;;;;;;0.97;0.50;;;10.40;99.90;;;;;;4967296;28;20631;-55
2023/10/29 00:56:08;;;;;;;0.20;0.20;;;10.30;99.90;;;;;;4966066;28;21009;-55
2023/10/29 00:58:36;;;;;;;0.83;0.30;;;10.30;99.90;;;;;;4967131;28;20211;-55
2023/10/29 01:01:05;;;;;;;0.30;0.30;;;10.30;99.90;;;;;;4966904;28;20266;-55
2023/10/29 01:03:32;;;;;;;0.50;0.50;;;10.30;99.90;;;;;;4987729;23;20241;-60
2023/10/29 01:05:59;;;;;;;0.87;0.30;;;10.30;99.90;;;;;;4970238;28;20229;-60
2023/10/29 01:08:27;;;;;;;0.30;0.30;;;10.30;99.90;;;;;;4978759;28;20207;-60
2023/10/29 01:10:56;;;;;;;1.60;0.20;;;10.30;99.90;;;;;;4971303;28;20245;-60
2023/10/29 01:13:23;;;;;;;0.20;0.20;;;10.30;99.90;;;;;;4970302;28;20211;-60
2023/10/29 01:15:50;;;;;;;0.20;0.20;;;10.40;99.90;;;;;;4979496;28;20218;-60
2023/10/29 01:18:17;;;;;;;1.10;0.20;;;10.40;99.90;;;;;;4969629;28;20613;-60
2023/10/29 01:20:45;;;;;;;0.40;0.40;;;10.50;99.90;;;;;;4961368;28;20334;-60
2023/10/29 01:23:13;;;;;;;2.77;0.40;;;10.60;99.90;;;;;;4963078;28;20286;-60
2023/10/29 01:25:41;;;;;;;0.20;0.20;;;10.70;99.90;;;;;;4972005;28;20675;-60
2023/10/29 01:28:09;;;;;;;0.47;0.20;;;10.80;99.90;;;;;;4983314;28;20199;-60
2023/10/29 01:30:36;;;;;;;0.10;0.10;;;11.00;99.90;;;;;;4978636;28;20577;-60
2023/10/29 01:33:03;;;;;;;0.20;0.20;;;11.20;99.90;;;;;;4973701;28;20208;-60
2023/10/29 01:35:30;;;;;;;0.10;0.10;;;11.30;99.90;;;;;;4969596;28;20231;-60
2023/10/29 01:37:57;;;;;;;2.07;0.07;;;11.50;99.90;;;;;;4970778;28;20211;-60
2023/10/29 01:40:24;;;;;;;0.17;0.10;;;11.80;99.90;;;;;;4978203;28;20226;-60
2023/10/29 01:42:52;;;;;;;0.60;0.10;;;12.20;99.90;;;;;;4979296;28;20589;-60
2023/10/29 01:45:20;;;;;;;0.20;0.20;;;12.40;99.90;;;;;;4978375;28;20229;-60
2023/10/29 01:47:47;;;;;;;0.20;0.20;;;12.60;99.90;;;;;;4967876;28;20207;-60
2023/10/29 01:50:14;;;;;;;0.20;0.20;;;12.80;99.90;;;;;;4969524;28;20203;-60
2023/10/29 01:52:41;;;;;;;0.60;0.20;;;13.00;99.90;;;;;;4968358;28;20207;-60
2023/10/29 01:55:09;;;;;;;0.80;0.20;;;13.10;99.90;;;;;;4977087;28;20366;-61
2023/10/29 01:57:36;;;;;;;1.47;0.53;;;13.10;99.90;;;;;;4966804;28;20232;-60
2023/10/29 02:00:05;;;;;;;1.00;0.10;;;13.30;99.90;;;;;;4965689;28;20266;-60
2023/10/29 02:02:34;;;;;;;0.83;0.50;;;13.30;99.90;;;;;;4970691;28;20288;-60
2023/10/29 02:05:03;;;;;;;0.20;0.20;;;13.40;99.90;;;;;;4976193;28;20294;-60
2023/10/29 02:07:30;;;;;;;0.60;0.60;;;13.30;99.90;;;;;;4967748;28;20223;-60
2023/10/29 02:09:57;;;;;;;0.50;0.17;;;13.40;99.90;;;;;;4964903;28;20732;-60
2023/10/29 02:12:24;;;;;;;0.43;0.37;;;13.40;99.90;;;;;;4966861;28;20675;-60
2023/10/29 02:14:51;;;;;;;0.30;0.30;;;13.30;99.90;;;;;;4978664;28;20307;-60
2023/10/29 02:17:18;;;;;;;1.07;0.50;;;13.40;99.90;;;;;;4971289;28;20209;-60
2023/10/29 02:19:46;;;;;;;2.70;0.30;;;13.40;99.90;;;;;;4955608;28;20199;-60
2023/10/29 02:22:15;;;;;;;0.87;0.33;;;13.30;99.90;;;;;;4965265;28;20215;-60
2023/10/29 02:24:42;;;;;;;0.33;0.23;;;13.30;99.90;;;;;;4971294;28;20230;-60
2023/10/29 02:27:09;;;;;;;0.60;0.20;;;13.50;99.90;;;;;;4971183;28;20745;-60
2023/10/29 02:29:36;;;;;;;0.40;0.20;;;13.50;99.90;;;;;;4967449;28;20268;-60
2023/10/29 02:32:03;;;;;;;0.30;0.30;;;13.50;99.90;;;;;;4961220;28;20275;-60
2023/10/29 02:34:30;;;;;;;0.40;0.20;;;13.60;99.90;;;;;;4969592;28;20220;-60
2023/10/29 02:36:57;;;;;;;1.20;0.20;;;13.40;99.90;;;;;;4981974;28;20203;-60
2023/10/29 02:39:25;;;;;;;0.33;0.33;;;13.30;99.90;;;;;;4990459;28;20258;-60
2023/10/29 02:41:52;;;;;;;0.60;0.20;;;13.20;99.90;;;;;;4969874;28;20216;-60
2023/10/29 02:44:19;;;;;;;0.40;0.20;;;13.00;99.90;;;;;;4972026;28;20219;-60
2023/10/29 02:46:46;;;;;;;1.47;0.53;;;12.90;99.90;;;;;;4965825;28;20201;-60
2023/10/29 02:49:14;;;;;;;0.47;0.20;;;12.80;99.90;;;;;;4951640;29;20270;-60
2023/10/29 02:51:41;;;;;;;0.20;0.20;;;12.80;99.90;;;;;;4968604;28;20200;-60
2023/10/29 02:54:08;;;;;;;1.10;0.13;;;12.80;99.90;;;;;;4982034;28;20212;-60
2023/10/29 02:56:37;;;;;;;0.23;0.23;;;12.80;99.90;;;;;;4978074;28;20674;-60
2023/10/29 02:59:04;;;;;;;1.13;0.40;;;12.70;99.90;;;;;;4971021;28;20200;-60
2023/10/29 03:01:31;;;;;;;0.50;0.50;;;12.50;99.90;;;;;;4969552;28;20256;-61
2023/10/29 03:03:58;;;;;;;1.60;0.40;;;12.40;99.90;;;;;;4957778;28;20236;-60
2023/10/29 03:06:25;;;;;;;0.47;0.20;;;12.20;99.90;;;;;;4972697;28;20209;-60
2023/10/29 03:08:52;;;;;;;0.30;0.30;;;12.00;99.90;;;;;;4972030;28;20208;-61
2023/10/29 03:11:19;;;;;;;0.30;0.20;;;11.90;99.90;;;;;;4965992;28;20624;-60
2023/10/29 03:13:48;;;;;;;1.07;0.20;;;11.70;99.90;;;;;;4958758;28;20642;-60
2023/10/29 03:16:15;;;;;;;4.07;0.40;;;11.60;99.90;;;;;;4959746;28;20263;-60
2023/10/29 03:18:42;;;;;;;0.20;0.20;;;11.50;99.90;;;;;;4954663;28;20672;-60
2023/10/29 03:21:09;;;;;;;1.93;0.37;;;11.50;99.90;;;;;;4954539;28;20643;-60
2023/10/29 03:23:36;;;;;;;1.10;0.47;;;11.50;99.90;;;;;;4961290;28;20227;-60
2023/10/29 03:26:04;;;;;;;1.63;0.33;;;11.60;99.90;;;;;;4962488;28;20263;-60
2023/10/29 03:28:31;;;;;;;1.67;0.30;;;11.70;99.90;;;;;;4953419;28;20602;-61
2023/10/29 03:31:02;;;;;;;1.50;0.20;;;11.80;99.90;;;;;;4980160;28;20207;-61
2023/10/29 03:33:29;;;;;;;1.10;0.20;;;11.80;99.90;;;;;;4972144;28;20231;-60
2023/10/29 03:35:56;;;;;;;1.80;0.20;;;11.80;99.90;;;;;;4976844;28;20204;-60
2023/10/29 03:38:24;;;;;;;0.43;0.40;;;12.00;99.90;;;;;;4983891;28;20577;-60
2023/10/29 03:40:50;;;;;;;1.30;0.30;;;12.10;99.90;;;;;;4975974;28;20222;-61
2023/10/29 03:43:17;;;;;;;1.13;0.20;;;12.20;99.90;;;;;;4984191;28;20207;-60
2023/10/29 03:45:44;;;;;;;0.20;0.17;;;12.40;99.90;;;;;;4981151;28;20213;-60
2023/10/29 03:48:14;;;;;;;2.50;0.40;;;12.40;99.90;;;;;;4971244;28;20215;-61
2023/10/29 03:50:41;;;;;;;0.20;0.20;;;12.50;99.90;;;;;;4983432;28;20195;-61
2023/10/29 03:53:08;;;;;;;0.20;0.20;;;12.50;99.90;;;;;;4969728;28;20707;-60
2023/10/29 03:55:37;;;;;;;0.30;0.20;;;12.50;99.90;;;;;;4980401;28;20298;-61
2023/10/29 03:58:04;;;;;;;1.40;0.63;;;12.50;99.90;;;;;;4973451;28;20214;-60
2023/10/29 04:00:32;;;;;;;0.90;0.10;;;12.50;99.90;;;;;;4977177;28;20224;-60
2023/10/29 04:02:59;;;;;;;0.30;0.00;;;12.50;99.90;;;;;;4975848;28;20246;-60
2023/10/29 04:05:27;;;;;;;1.07;0.10;;;12.50;99.90;;;;;;4977122;28;20283;-60
2023/10/29 04:07:54;;;;;;;0.40;0.00;;;12.60;99.90;;;;;;4972005;28;20204;-61
2023/10/29 04:10:21;;;;;;;0.27;0.10;;;12.60;99.90;;;;;;4970608;28;20735;-61
2023/10/29 04:12:48;;;;;;;0.10;0.10;;;12.80;99.90;;;;;;4980621;28;20691;-60
2023/10/29 04:15:15;;;;;;;0.70;0.00;;;13.10;99.90;;;;;;4972551;28;20229;-61
2023/10/29 04:17:43;;;;;;;0.40;0.10;;;13.20;99.90;;;;;;4972338;28;20208;-60
2023/10/29 04:20:10;;;;;;;0.73;0.20;;;13.20;99.90;;;;;;4975474;28;20207;-61
2023/10/29 04:22:38;;;;;;;0.20;0.20;;;13.30;99.90;;;;;;4970935;28;20668;-60
2023/10/29 04:25:06;;;;;;;1.53;0.20;;;13.40;99.90;;;;;;4972383;28;20227;-60
2023/10/29 04:27:33;;;;;;;0.20;0.20;;;13.40;99.90;;;;;;4984706;28;20266;-60
2023/10/29 04:30:00;;;;;;;3.03;0.90;;;13.10;99.90;;;;;;4972910;28;20208;-60
2023/10/29 04:32:27;;;;;;;0.60;0.60;;;12.80;99.90;;;;;;4970901;28;20571;-61
2023/10/29 04:34:54;;;;;;;1.30;0.83;;;12.40;99.90;;;;;;4970868;28;20377;-60
2023/10/29 04:37:22;;;;;;;3.50;0.77;;;12.10;99.90;;;;;;4979518;28;20655;-60
2023/10/29 04:39:51;;;;;;;0.80;0.80;;;12.00;99.90;;;;;;4972597;28;20196;-60
2023/10/29 04:42:18;;;;;;;0.47;0.47;;;11.90;99.90;;;;;;4980522;28;20230;-59
2023/10/29 04:44:45;;;;;;;0.90;0.90;;;11.70;99.90;;;;;;4980192;28;20721;-60
2023/10/29 04:47:12;;;;;;;2.10;0.60;;;11.40;99.90;;;;;;4979403;28;20860;-60
2023/10/29 04:49:38;;;;;;;2.33;1.00;;;11.30;99.90;;;;;;4969419;28;20237;-60
2023/10/29 04:52:06;;;;;;;1.33;0.80;;;11.10;99.90;;;;;;4972708;28;20259;-60
2023/10/29 04:54:33;;;;;;;2.10;0.83;;;11.00;99.90;;;;;;4970551;28;20242;-60
2023/10/29 04:57:02;;;;;;;2.17;0.70;;;10.90;99.90;;;;;;4977872;28;20294;-60
2023/10/29 04:59:29;;;;;;;1.33;0.73;;;10.80;99.90;;;;;;4974187;28;20279;-60
2023/10/29 05:01:56;;;;;;;1.73;0.90;;;10.70;99.90;;;;;;4962514;28;20305;-61
2023/10/29 05:04:23;;;;;;;1.63;1.07;;;10.70;99.90;;;;;;4963520;28;20306;-60
2023/10/29 05:06:50;;;;;;;1.57;1.30;;;10.70;99.90;;;;;;4953474;28;20209;-60
2023/10/29 05:09:16;;;;;;;1.07;0.80;;;10.80;99.90;;;;;;4959886;28;20276;-60
2023/10/29 05:11:43;;;;;;;1.23;1.20;;;10.70;99.90;;;;;;4969833;28;20215;-60
2023/10/29 05:14:12;;;;;;;0.87;0.87;;;10.50;99.90;;;;;;4971501;28;20234;-60
2023/10/29 05:16:39;;;;;;;1.23;1.13;;;10.40;99.90;;;;;;4970130;28;20203;-60
2023/10/29 05:19:06;;;;;;;2.73;1.43;;;10.50;99.90;;;;;;4960764;28;20663;-60
2023/10/29 05:21:32;;;;;;;1.40;1.30;;;10.40;99.90;;;;;;4956604;28;20235;-60
2023/10/29 05:23:59;;;;;;;1.57;1.47;;;10.30;99.90;;;;;;4959482;28;20217;-60
2023/10/29 05:26:26;;;;;;;2.53;1.30;;;10.20;99.90;;;;;;4963572;28;20281;-60
2023/10/29 05:28:53;;;;;;;1.43;0.90;;;10.20;99.90;;;;;;4963002;28;20200;-60
2023/10/29 05:31:22;;;;;;;2.20;1.70;;;10.00;99.90;;;;;;4961845;28;20822;-60
2023/10/29 05:33:48;;;;;;;1.67;1.57;;;9.90;99.90;;;;;;4957456;28;20276;-60
2023/10/29 05:36:16;;;;;;;1.77;1.33;;;9.80;99.90;;;;;;4959184;28;20267;-60
2023/10/29 05:38:43;;;;;;;5.33;1.83;;;9.70;99.90;;;;;;4954420;28;20699;-61
2023/10/29 05:41:10;;;;;;;1.83;1.73;;;9.60;99.90;;;;;;4967585;28;20656;-59
2023/10/29 05:43:37;;;;;;;1.90;1.00;;;9.50;99.90;;;;;;4968007;28;20227;-60
2023/10/29 05:46:12;;;;;;;2.20;1.43;;;9.40;99.90;;;;;;4968479;28;20561;-60
2023/10/29 05:48:40;;;;;;;3.57;1.50;;;9.40;99.90;;;;;;4959183;28;20248;-60
2023/10/29 05:51:12;;;;;;;1.63;1.53;;;9.30;99.90;;;;;;4955932;28;20586;-60
2023/10/29 05:53:39;;;;;;;1.50;1.40;;;9.30;99.90;;;;;;4968017;28;20226;-60
2023/10/29 05:56:07;;;;;;;1.73;1.67;;;9.20;99.90;;;;;;4958278;28;20251;-60
2023/10/29 05:58:34;;;;;;;2.50;1.87;;;9.30;99.90;;;;;;4953139;28;20678;-60
2023/10/29 06:01:02;;;;;;;1.87;1.77;;;9.20;99.90;;;;;;4958788;28;20310;-60
2023/10/29 06:03:29;;;;;;;1.60;1.50;;;9.20;99.90;;;;;;4957422;28;20712;-60
2023/10/29 06:05:57;;;;;;;3.10;2.37;;;9.10;99.90;;;;;;4955026;28;20243;-60
2023/10/29 06:08:24;;;;;;;2.00;1.80;;;9.10;99.90;;;;;;4966029;28;20273;-60
2023/10/29 06:10:51;;;;;;;2.30;1.97;;;9.10;99.90;;;;;;4978018;28;20271;-61
2023/10/29 06:13:18;;;;;;;1.67;1.57;;;9.20;99.90;;;;;;4981929;28;20656;-60
2023/10/29 06:15:45;;;;;;;5.93;2.30;;;9.30;99.90;;;;;;4962712;28;20630;-60
2023/10/29 06:18:12;;;;;;;2.67;2.23;;;9.30;99.90;;;;;;4958466;28;20203;-60
2023/10/29 06:20:41;;;;;;;2.00;1.90;;;9.30;99.90;;;;;;4964018;28;20738;-60
2023/10/29 06:23:09;;;;;;;1.80;1.70;;;9.40;99.90;;;;;;4954919;28;20656;-59
2023/10/29 06:25:36;;;;;;;2.57;2.37;;;9.40;99.90;;;;;;4961989;28;20667;-60
2023/10/29 06:28:04;;;;;;;2.47;2.27;;;9.40;99.90;;;;;;4957064;28;20254;-61
2023/10/29 06:30:31;;;;;;;2.30;2.10;;;9.40;99.90;;;;;;4964078;28;20734;-60
2023/10/29 06:33:00;;;;;;;3.23;1.40;;;9.50;99.90;;;;;;4965973;28;20202;-60
2023/10/29 06:35:28;;;;;;;2.93;1.93;;;9.50;99.90;;;;;;4966596;28;20239;-60
2023/10/29 06:37:55;;;;;;;3.20;1.47;;;9.50;99.90;;;;;;4969223;28;20199;-61
2023/10/29 06:40:24;;;;;;;2.03;1.80;;;9.50;99.90;;;;;;4968863;28;20785;-60
2023/10/29 06:42:51;;;;;;;5.73;1.90;;;9.60;99.90;;;;;;4967483;28;20320;-60
2023/10/29 06:45:18;;;;;;;2.03;1.73;;;9.60;99.90;;;;;;4958050;28;20224;-59
2023/10/29 06:47:45;;;;;;;2.37;2.00;;;9.70;99.90;;;;;;4956013;28;20254;-60
2023/10/29 06:50:12;;;;;;;3.23;2.53;;;9.90;99.90;;;;;;4957476;28;20204;-60
2023/10/29 06:52:39;;;;;;;4.53;3.40;;;10.00;99.90;;;;;;4970025;28;20281;-60
2023/10/29 06:55:09;;;;;;;3.27;2.30;;;10.00;99.90;;;;;;4970171;28;20757;-61
2023/10/29 06:57:37;;;;;;;2.47;2.37;;;10.10;99.90;;;;;;4971103;28;20212;-60
2023/10/29 07:00:07;;;;;;;4.47;2.13;;;10.20;99.90;;;;;;4964759;28;20206;-60
2023/10/29 07:02:35;;;;;;;2.03;1.93;;;10.30;99.90;;;;;;4965424;28;20270;-60
2023/10/29 07:05:02;;;;;;;2.10;2.00;;;10.40;99.90;;;;;;4971459;28;20243;-60
2023/10/29 07:07:29;;;;;;;1.97;1.87;;;10.50;99.90;;;;;;4968602;28;20207;-60
2023/10/29 07:09:57;;;;;;;3.87;2.20;;;10.60;99.90;;;;;;4969628;28;20687;-60
2023/10/29 07:12:23;;;;;;;1.73;1.60;;;10.70;99.90;;;;;;4968946;28;20274;-60
2023/10/29 07:14:52;;;;;;;3.20;2.90;;;10.80;99.90;;;;;;4972627;28;20270;-60
2023/10/29 07:17:19;;;;;;;1.70;1.57;;;10.80;99.90;;;;;;4960908;28;20352;-60
2023/10/29 07:19:47;;;;;;;1.40;1.30;;;10.90;99.90;;;;;;4972608;28;20200;-60
2023/10/29 07:22:15;;;;;;;2.63;1.87;;;10.90;99.90;;;;;;4972577;28;20675;-59
2023/10/29 07:24:42;;;;;;;1.53;1.40;;;11.00;99.90;;;;;;4971669;28;20278;-58
2023/10/29 07:27:08;;;;;;;1.30;1.30;;;11.00;99.90;;;;;;4968654;28;20612;-58
2023/10/29 07:29:36;;;;;;;1.93;1.47;;;11.10;99.90;;;;;;4967264;28;20205;-59
2023/10/29 07:32:05;;;;;;;1.57;1.30;;;11.20;99.90;;;;;;4963407;28;20573;-58
2023/10/29 07:34:32;;;;;;;1.13;1.10;;;11.20;99.90;;;;;;4972279;28;20274;-58
2023/10/29 07:36:59;;;;;;;1.80;1.70;;;11.30;99.90;;;;;;4970119;28;20218;-58
2023/10/29 07:39:26;;;;;;;1.67;1.60;;;11.40;99.90;;;;;;4970876;28;20218;-58
2023/10/29 07:41:54;;;;;;;2.07;1.97;;;11.50;99.90;;;;;;4966331;28;20269;-59
2023/10/29 07:44:20;;;;;;;5.33;4.40;;;11.60;99.90;;;;;;4967180;28;20252;-59
2023/10/29 07:46:47;;;;;;;3.87;2.13;;;11.70;99.90;;;;;;4970030;28;20661;-60
2023/10/29 07:49:16;;;;;;;1.50;1.30;;;11.80;99.90;;;;;;4973120;28;20947;-59
2023/10/29 07:51:43;;;;;;;1.73;1.07;;;11.90;99.90;;;;;;4972314;28;20261;-59
2023/10/29 07:54:10;;;;;;;2.47;0.90;;;11.90;99.90;;;;;;4966718;28;20230;-59
2023/10/29 07:56:37;;;;;;;3.03;0.83;;;11.90;99.90;;;;;;4972976;28;20207;-59
2023/10/29 07:59:04;;;;;;;1.10;1.00;;;11.90;99.90;;;;;;4972546;28;20214;-60
2023/10/29 08:01:31;;;;;;;1.00;1.00;;;11.90;99.90;;;;;;4976275;28;20672;-59
2023/10/29 08:03:58;;;;;;;2.50;0.90;;;11.90;99.90;;;;;;4959177;28;20609;-59
2023/10/29 08:06:26;;;;;;;1.20;1.10;;;11.90;99.90;;;;;;4969437;28;20212;-59
2023/10/29 08:08:53;;;;;;;1.30;1.20;;;12.00;99.90;;;;;;4969955;28;20281;-59
2023/10/29 08:11:21;;;;;;;3.00;1.73;;;12.00;99.90;;;;;;4972027;28;20289;-59
2023/10/29 08:13:50;;;;;;;1.33;1.10;;;12.10;99.90;;;;;;4971041;28;20257;-59
2023/10/29 08:16:17;;;;;;;2.67;1.50;;;12.20;99.90;;;;;;4965973;28;20204;-59
2023/10/29 08:18:44;;;;;;;1.80;1.70;;;12.30;99.90;;;;;;4965314;28;20228;-59
2023/10/29 08:21:11;;;;;;;2.70;2.30;;;12.40;99.90;;;;;;4965547;28;20219;-59
2023/10/29 08:23:39;;;;;;;2.17;2.07;;;12.40;99.90;;;;;;4971041;28;20244;-58
2023/10/29 08:26:08;;;;;;;1.80;1.70;;;12.40;99.90;;;;;;4971481;28;20266;-59
2023/10/29 08:28:37;;;;;;;1.37;1.33;;;12.40;99.90;;;;;;4966029;28;20202;-59
2023/10/29 08:31:04;;;;;;;1.37;1.33;;;12.30;99.90;;;;;;4965510;28;20709;-58
2023/10/29 08:33:32;;;;;;;1.87;1.53;;;12.20;99.90;;;;;;4971922;28;20521;-59
2023/10/29 08:35:58;;;;;;;1.67;1.57;;;12.20;99.90;;;;;;4961301;28;20211;-59
2023/10/29 08:38:25;;;;;;;1.77;1.13;;;12.30;99.90;;;;;;4971305;28;20201;-59
2023/10/29 08:40:54;;;;;;;1.40;1.40;;;12.50;99.90;;;;;;4966702;28;20277;-59
2023/10/29 08:43:21;;;;;;;5.87;5.30;;;12.70;99.90;;;;;;4958541;28;20264;-59
2023/10/29 08:45:48;;;;;;;1.40;1.30;;;12.90;99.90;;;;;;4964838;28;20200;-59
2023/10/29 08:48:15;;;;;;;1.17;1.00;;;13.10;99.90;;;;;;4963646;28;20651;-59
2023/10/29 08:50:42;;;;;;;1.43;1.33;;;13.30;99.90;;;;;;4957142;28;20212;-58
2023/10/29 08:53:09;;;;;;;1.93;1.83;;;13.40;99.90;;;;;;4966619;28;20201;-59
2023/10/29 08:55:36;;;;;;;3.05;2.85;;;13.60;99.90;;;;;;4990021;23;20461;-68
2023/10/29 08:58:05;;;;;;;1.97;1.87;;;13.70;99.90;;;;;;4972950;28;20197;-67
2023/10/29 09:00:32;;;;;;;2.53;1.63;;;13.80;99.90;;;;;;4978348;28;20667;-67
2023/10/29 09:02:59;;;;;;;1.00;0.97;;;13.90;99.90;;;;;;4971934;28;20224;-67
2023/10/29 09:05:27;;;;;;;1.10;1.00;;;14.10;99.90;;;;;;4967095;28;20224;-67
2023/10/29 09:07:54;;;;;;;0.83;0.83;;;14.30;99.90;;;;;;4963176;28;20228;-65
2023/10/29 09:10:21;;;;;;;0.80;0.80;;;14.50;99.90;;;;;;4964312;28;20212;-65
2023/10/29 09:12:48;;;;;;;4.80;2.80;;;14.90;99.90;;;;;;4971678;28;20200;-67
2023/10/29 09:15:16;;;;;;;2.07;0.80;;;15.10;99.90;;;;;;4970586;28;20601;-65
2023/10/29 09:17:43;;;;;;;1.00;0.87;;;15.30;99.90;;;;;;4968224;28;20263;-64
2023/10/29 09:20:12;;;;;;;1.13;1.03;;;15.30;99.90;;;;;;4951552;28;20617;-66
2023/10/29 09:22:39;;;;;;;1.13;1.00;;;15.40;99.90;;;;;;4944342;29;20229;-66
2023/10/29 09:25:07;;;;;;;4.53;1.20;;;15.40;99.90;;;;;;4953227;29;20704;-66
2023/10/29 09:27:33;;;;;;;1.17;1.03;;;15.40;99.90;;;;;;4953365;28;20560;-64
2023/10/29 09:30:00;;;;;;;5.70;1.50;;;15.10;99.90;;;;;;4953512;29;20670;-64
2023/10/29 09:32:29;;;;;;;7.33;2.00;;;15.00;99.90;;;;;;4953611;29;20201;-61
2023/10/29 09:34:56;;;;;;;1.57;1.47;;;14.70;99.90;;;;;;4953108;29;20224;-60
2023/10/29 09:37:23;;;;;;;1.93;1.40;;;14.20;99.90;;;;;;4952715;29;20256;-68
2023/10/29 09:39:50;;;;;;;1.43;1.37;;;14.80;99.90;;;;;;4950442;29;20289;-60
2023/10/29 09:42:18;;;;;;;5.43;1.87;;;14.90;99.90;;;;;;4952274;29;20276;-67
2023/10/29 09:44:50;;;;;;;1.63;1.53;;;15.10;99.90;;;;;;4952650;28;20221;-65
2023/10/29 09:47:17;;;;;;;2.37;1.37;;;15.10;99.90;;;;;;4952640;29;20216;-64
2023/10/29 09:49:46;;;;;;;3.27;2.30;;;14.90;99.90;;;;;;4952517;29;20232;-68
2023/10/29 09:52:15;;;;;;;1.97;1.77;;;14.80;99.90;;;;;;4941780;29;20744;-68
2023/10/29 09:54:42;;;;;;;3.20;2.90;;;14.70;99.90;;;;;;4946812;29;20269;-62
2023/10/29 09:57:09;;;;;;;2.30;1.30;;;14.50;99.90;;;;;;4953552;28;20220;-60
2023/10/29 09:59:36;;;;;;;2.70;1.57;;;14.30;99.90;;;;;;4946112;28;20213;-59
2023/10/29 10:02:05;;;;;;;1.67;1.57;;;14.20;99.90;;;;;;4950659;28;21251;-60
2023/10/29 10:04:32;;;;;;;3.53;1.47;;;14.20;99.90;;;;;;4948361;28;20720;-60
2023/10/29 10:07:00;;;;;;;1.63;1.10;;;14.10;99.90;;;;;;4961029;28;20205;-60
2023/10/29 10:09:28;;;;;;;2.20;1.23;;;14.10;99.90;;;;;;4964887;28;20350;-60
2023/10/29 10:12:05;;;;;;;1.13;0.70;;;14.10;99.90;;;;;;4964730;28;20197;-59
2023/10/29 10:14:32;;;;;;;2.20;0.90;;;14.10;99.90;;;;;;4967933;28;20269;-60
2023/10/29 10:17:09;;;;;;;1.70;0.93;;;14.00;99.90;;;;;;4964161;28;20763;-60
2023/10/29 10:19:37;;;;;;;2.97;1.70;;;13.90;99.90;;;;;;4971842;28;20204;-59
2023/10/29 10:22:05;;;;;;;2.97;1.50;;;13.90;99.90;;;;;;4968213;28;20670;-60
2023/10/29 10:24:40;;;;;;;4.10;0.90;;;13.80;99.90;;;;;;4968932;28;20704;-60
2023/10/29 10:27:09;;;;;;;2.30;0.97;;;13.70;99.90;;;;;;4966756;28;20232;-60
2023/10/29 10:29:36;;;;;;;2.13;1.30;;;13.70;99.90;;;;;;4969848;28;20208;-60
2023/10/29 10:32:04;;;;;;;1.13;1.03;;;13.70;99.90;;;;;;4969779;28;20211;-60
2023/10/29 10:34:33;;;;;;;1.47;0.90;;;13.70;99.90;;;;;;4970642;28;20275;-60
2023/10/29 10:37:00;;;;;;;2.80;1.50;;;13.80;99.90;;;;;;4966934;28;20205;-60
2023/10/29 10:39:32;;;;;;;1.87;1.77;;;13.80;99.90;;;;;;4968747;28;20228;-60
2023/10/29 10:42:03;;;;;;;1.57;1.53;;;13.70;99.90;;;;;;4970855;28;20275;-60
2023/10/29 10:44:31;;;;;;;2.90;1.37;;;13.80;99.90;;;;;;4968566;28;20232;-59
2023/10/29 10:47:02;;;;;;;4.93;2.67;;;13.90;99.90;;;;;;4971048;28;20645;-60
2023/10/29 10:49:31;;;;;;;2.63;1.40;;;14.00;99.90;;;;;;4969327;28;20222;-59
2023/10/29 10:52:01;;;;;;;2.30;1.40;;;14.10;99.90;;;;;;4967315;28;20205;-59
2023/10/29 10:54:29;;;;;;;4.00;1.57;;;14.20;99.90;;;;;;4968252;28;20234;-60
2023/10/29 10:57:00;;;;;;;1.67;1.57;;;14.20;99.90;;;;;;4968431;28;20224;-60
2023/10/29 10:59:27;;;;;;;1.70;1.60;;;14.20;99.90;;;;;;4956173;28;20202;-60
2023/10/29 11:01:54;;;;;;;1.90;1.57;;;14.30;99.90;;;;;;4958482;28;20280;-60
2023/10/29 11:04:26;;;;;;;2.70;1.30;;;14.50;99.90;;;;;;4959420;28;20326;-61
2023/10/29 11:06:53;;;;;;;2.47;1.87;;;14.60;99.90;;;;;;4956429;28;20204;-60
2023/10/29 11:09:21;;;;;;;1.23;1.20;;;14.80;99.90;;;;;;4958564;28;20237;-60
2023/10/29 11:11:51;;;;;;;1.20;1.10;;;14.80;99.90;;;;;;4963889;28;20210;-61
2023/10/29 11:14:21;;;;;;;2.10;1.40;;;14.80;99.90;;;;;;4959566;28;20277;-60
2023/10/29 11:16:53;;;;;;;1.83;1.37;;;14.90;99.90;;;;;;4944679;28;20209;-60
2023/10/29 11:19:44;;;;;;;1.77;1.67;;;14.90;99.90;;;;;;4950138;29;20209;-60
2023/10/29 11:22:19;;;;;;;1.40;1.40;;;14.70;99.90;;;;;;4954622;29;20232;-60
2023/10/29 11:25:33;;;;;;;2.07;1.50;;;14.80;99.90;;;;;;4954993;29;20604;-60
2023/10/29 11:28:01;;;;;;;3.13;1.93;;;14.90;99.90;;;;;;4931195;28;20689;-60
2023/10/29 11:30:29;;;;;;;1.20;1.10;;;14.80;99.90;;;;;;4954146;29;20202;-60
2023/10/29 11:33:16;;;;;;;1.30;1.23;;;14.80;99.90;;;;;;4955464;28;20205;-60
2023/10/29 11:35:43;;;;;;;1.17;1.10;;;14.90;99.90;;;;;;4952404;28;20803;-61
2023/10/29 11:38:31;;;;;;;1.23;1.23;;;14.90;99.90;;;;;;4955186;29;20284;-61
2023/10/29 11:40:58;;;;;;;1.07;0.87;;;15.10;99.90;;;;;;4954268;29;20737;-60
2023/10/29 11:43:25;;;;;;;2.63;1.50;;;15.20;99.90;;;;;;4954075;29;20229;-60
2023/10/29 11:46:05;;;;;;;3.70;1.07;;;15.30;99.90;;;;;;4954769;29;20233;-60
2023/10/29 11:48:33;;;;;;;1.57;1.10;;;15.40;99.90;;;;;;4952904;28;20205;-67
2023/10/29 11:51:20;;;;;;;1.80;1.70;;;15.40;99.90;;;;;;4947074;28;20712;-67
2023/10/29 11:53:47;;;;;;;1.43;1.33;;;15.50;99.90;;;;;;4952439;28;20203;-66
2023/10/29 11:56:16;;;;;;;2.37;1.63;;;15.50;99.90;;;;;;4952037;29;20603;-66
2023/10/29 11:58:43;;;;;;;2.50;1.47;;;15.50;99.90;;;;;;4955982;28;20209;-66
2023/10/29 12:01:12;;;;;;;1.93;1.83;;;15.40;99.90;;;;;;4954485;29;20701;-66
2023/10/29 12:03:39;;;;;;;1.67;1.57;;;15.40;99.90;;;;;;4952830;29;20586;-65
2023/10/29 12:06:08;;;;;;;1.73;1.60;;;15.50;99.90;;;;;;4945170;29;20228;-67
2023/10/29 12:08:35;;;;;;;3.87;1.90;;;15.30;99.90;;;;;;4954229;29;20209;-66
2023/10/29 12:11:06;;;;;;;2.60;2.20;;;15.30;99.90;;;;;;4954210;28;20212;-67
2023/10/29 12:13:43;;;;;;;1.63;1.53;;;15.30;99.90;;;;;;4950493;28;20201;-60
2023/10/29 12:16:13;;;;;;;2.47;2.27;;;15.30;99.90;;;;;;4941904;29;20229;-60
2023/10/29 12:18:41;;;;;;;2.87;1.60;;;15.30;99.90;;;;;;4952204;29;20208;-60
2023/10/29 12:21:09;;;;;;;1.57;1.47;;;15.30;99.90;;;;;;4954083;28;20206;-60
2023/10/29 12:23:37;;;;;;;2.73;1.53;;;15.30;99.90;;;;;;4949970;28;20233;-60
2023/10/29 12:26:10;;;;;;;1.17;1.17;;;15.20;99.90;;;;;;4950007;29;20245;-60
2023/10/29 12:28:38;;;;;;;1.37;1.27;;;15.20;99.90;;;;;;4952184;28;20265;-60
2023/10/29 12:31:06;;;;;;;2.30;1.27;;;15.20;99.90;;;;;;4951391;28;20288;-60
2023/10/29 12:33:34;;;;;;;1.03;1.03;;;15.30;99.90;;;;;;4953093;28;20208;-60
2023/10/29 12:36:08;;;;;;;1.30;1.30;;;15.30;99.90;;;;;;4953786;28;20761;-60
2023/10/29 12:38:39;;;;;;;1.30;1.30;;;15.40;99.90;;;;;;4953985;28;20205;-60
2023/10/29 12:41:12;;;;;;;5.30;2.63;;;15.40;99.90;;;;;;4953310;29;20236;-61
2023/10/29 12:43:42;;;;;;;5.67;2.73;;;15.50;99.90;;;;;;4953411;29;20228;-60
2023/10/29 12:46:11;;;;;;;2.77;2.57;;;15.50;99.90;;;;;;4951897;28;20228;-60
2023/10/29 12:48:58;;;;;;;2.17;1.97;;;15.60;99.90;;;;;;4952985;28;20237;-60
2023/10/29 12:51:26;;;;;;;0.67;0.63;;;15.70;99.90;;;;;;4968119;28;20267;-61
2023/10/29 12:54:08;;;;;;;0.10;0.10;;;15.90;99.90;;;;;;4971230;28;20720;-60
2023/10/29 12:56:35;;;;;;;0.00;0.00;;;16.40;99.90;;;;;;4970841;28;20738;-60